createdAt,value
2018-09-25T00:01:27.717Z,103078.11
2018-09-25T00:04:01.194Z,103079.62
2018-09-25T00:06:34.813Z,103071.45
2018-09-25T00:09:08.242Z,103068.45
2018-09-25T00:11:41.622Z,103077.75
2018-09-25T00:14:15.387Z,103074.45
2018-09-25T00:16:49.021Z,103069.80
2018-09-25T00:19:22.498Z,103070.87
2018-09-25T00:21:56.074Z,103069.38
2018-09-25T00:24:29.674Z,103082.05
2018-09-25T00:27:03.075Z,103069.27
2018-09-25T00:29:36.619Z,103070.25
2018-09-25T00:32:10.150Z,103073.05
2018-09-25T00:34:43.755Z,103068.05
2018-09-25T00:37:17.338Z,103072.84
2018-09-25T00:39:50.941Z,103068.05
2018-09-25T00:42:24.409Z,103077.58
2018-09-25T00:44:57.841Z,103080.63
2018-09-25T00:47:31.218Z,103076.28
2018-09-25T00:50:04.822Z,103079.59
2018-09-25T00:52:38.258Z,103081.57
2018-09-25T00:55:11.971Z,103084.86
2018-09-25T00:57:45.454Z,103079.75
2018-09-25T01:00:19.199Z,103081.08
2018-09-25T01:02:52.639Z,103080.47
2018-09-25T01:05:26.178Z,103080.03
2018-09-25T01:07:59.706Z,103085.02
2018-09-25T01:10:33.192Z,103082.19
2018-09-25T01:13:06.834Z,103075.22
2018-09-25T01:15:40.280Z,103078.89
2018-09-25T01:18:13.833Z,103077.39
2018-09-25T01:20:47.266Z,103082.61
2018-09-25T01:23:20.800Z,103082.27
2018-09-25T01:25:54.285Z,103087.93
2018-09-25T01:28:27.843Z,103083.61
2018-09-25T01:31:01.250Z,103079.99
2018-09-25T01:33:34.757Z,103082.00
2018-09-25T01:36:08.411Z,103089.83
2018-09-25T01:38:41.989Z,103091.25
2018-09-25T01:41:15.592Z,103088.81
2018-09-25T01:43:49.199Z,103087.91
2018-09-25T01:46:22.793Z,103097.80
2018-09-25T01:48:56.238Z,103091.71
2018-09-25T01:51:29.738Z,103099.09
2018-09-25T01:54:03.242Z,103098.59
2018-09-25T01:56:36.743Z,103098.70
2018-09-25T01:59:10.502Z,103101.83
2018-09-25T02:01:44.081Z,103104.34
2018-09-25T02:04:17.600Z,103099.42
2018-09-25T02:06:51.199Z,103102.51
2018-09-25T02:09:24.554Z,103100.19
2018-09-25T02:11:58.157Z,103104.20
2018-09-25T02:14:31.697Z,103095.95
2018-09-25T02:17:05.136Z,103100.05
2018-09-25T02:19:38.586Z,103106.20
2018-09-25T02:22:12.239Z,103100.53
2018-09-25T02:24:45.650Z,103100.72
2018-09-25T02:27:19.168Z,103103.00
2018-09-25T02:29:52.708Z,103103.58
2018-09-25T02:32:26.180Z,103105.61
2018-09-25T02:34:59.698Z,103107.02
2018-09-25T02:37:33.231Z,103112.15
2018-09-25T02:40:06.686Z,103106.66
2018-09-25T02:42:40.004Z,103110.93
2018-09-25T02:45:13.600Z,103105.02
2018-09-25T02:47:47.312Z,103107.02
2018-09-25T02:50:20.934Z,103108.08
2018-09-25T02:52:54.311Z,103110.78
2018-09-25T02:55:27.778Z,103109.34
2018-09-25T02:58:01.319Z,103108.37
2018-09-25T03:00:34.844Z,103119.78
2018-09-25T03:03:08.414Z,103119.41
2018-09-25T03:05:41.914Z,103122.95
2018-09-25T03:08:15.496Z,103129.05
2018-09-25T03:10:48.993Z,103134.73
2018-09-25T03:13:22.708Z,103122.92
2018-09-25T03:15:56.178Z,103126.11
2018-09-25T03:18:29.726Z,103123.49
2018-09-25T03:21:03.046Z,103120.91
2018-09-25T03:23:36.691Z,103120.36
2018-09-25T03:26:10.262Z,103116.91
2018-09-25T03:28:43.762Z,103118.27
2018-09-25T03:31:17.294Z,103120.10
2018-09-25T03:33:50.770Z,103109.09
2018-09-25T03:36:24.347Z,103110.64
2018-09-25T03:38:57.673Z,103101.73
2018-09-25T03:41:32.353Z,103106.91
2018-09-25T03:44:06.026Z,103105.34
2018-09-25T03:46:39.374Z,103104.34
2018-09-25T03:49:12.969Z,103105.61
2018-09-25T03:51:46.566Z,103114.81
2018-09-25T03:54:20.004Z,103117.63
2018-09-25T03:56:53.557Z,103117.22
2018-09-25T03:59:27.390Z,103122.29
2018-09-25T04:02:00.870Z,103118.13
2018-09-25T04:04:34.561Z,103119.84
2018-09-25T04:07:08.123Z,103122.42
2018-09-25T04:09:45.512Z,103119.25
2018-09-25T04:12:18.989Z,103122.38
2018-09-25T04:14:52.601Z,103128.41
2018-09-25T04:17:26.106Z,103125.59
2018-09-25T04:19:59.575Z,103122.05
2018-09-25T04:22:33.173Z,103119.66
2018-09-25T04:25:06.701Z,103127.38
2018-09-25T04:27:40.239Z,103133.64
2018-09-25T04:30:13.781Z,103128.95
2018-09-25T04:32:47.288Z,103131.48
2018-09-25T04:35:20.866Z,103131.57
2018-09-25T04:37:54.544Z,103134.36
2018-09-25T04:40:28.142Z,103131.72
2018-09-25T04:43:01.667Z,103138.39
2018-09-25T04:45:35.125Z,103140.02
2018-09-25T04:48:08.728Z,103144.02
2018-09-25T04:50:42.210Z,103139.24
2018-09-25T04:53:15.641Z,103141.31
2018-09-25T04:55:49.102Z,103137.64
2018-09-25T04:58:22.456Z,103142.59
2018-09-25T05:00:56.046Z,103150.03
2018-09-25T05:03:29.426Z,103147.30
2018-09-25T05:06:02.961Z,103140.41
2018-09-25T05:08:36.458Z,103146.38
2018-09-25T05:11:09.890Z,103146.84
2018-09-25T05:13:43.382Z,103157.31
2018-09-25T05:16:16.800Z,103161.91
2018-09-25T05:18:50.420Z,103163.55
2018-09-25T05:21:23.829Z,103166.75
2018-09-25T05:23:57.303Z,103166.80
2018-09-25T05:26:30.846Z,103170.38
2018-09-25T05:29:04.286Z,103177.78
2018-09-25T05:31:37.886Z,103179.22
2018-09-25T05:34:11.553Z,103174.34
2018-09-25T05:36:45.039Z,103176.91
2018-09-25T05:39:19.633Z,103176.93
2018-09-25T05:41:53.049Z,103178.52
2018-09-25T05:44:26.824Z,103182.22
2018-09-25T05:47:00.251Z,103193.18
2018-09-25T05:49:33.834Z,103188.92
2018-09-25T05:52:08.594Z,103188.06
2018-09-25T05:54:42.385Z,103189.48
2018-09-25T05:57:15.874Z,103197.65
2018-09-25T05:59:49.497Z,103208.64
2018-09-25T06:02:22.975Z,103204.52
2018-09-25T06:04:56.604Z,103204.50
2018-09-25T06:07:33.920Z,103208.50
2018-09-25T06:10:07.543Z,103209.55
2018-09-25T06:12:41.061Z,103210.05
2018-09-25T06:15:14.726Z,103205.02
2018-09-25T06:17:48.230Z,103195.64
2018-09-25T06:20:21.765Z,103201.45
2018-09-25T06:22:55.193Z,103207.27
2018-09-25T06:25:29.123Z,103205.57
2018-09-25T06:28:02.561Z,103209.55
2018-09-25T06:30:36.076Z,103217.19
2018-09-25T06:33:09.648Z,103221.52
2018-09-25T06:35:43.262Z,103219.48
2018-09-25T06:38:16.858Z,103230.89
2018-09-25T06:40:50.671Z,103228.85
2018-09-25T06:43:24.287Z,103230.22
2018-09-25T06:45:57.844Z,103226.76
2018-09-25T06:48:31.383Z,103220.63
2018-09-25T06:51:05.165Z,103222.02
2018-09-25T06:53:38.860Z,103224.91
2018-09-25T06:56:12.501Z,103227.80
2018-09-25T06:58:45.976Z,103232.94
2018-09-25T07:01:21.919Z,103233.51
2018-09-25T07:03:55.533Z,103236.66
2018-09-25T07:06:29.082Z,103233.57
2018-09-25T07:09:02.510Z,103246.22
2018-09-25T07:11:36.054Z,103244.73
2018-09-25T07:14:09.586Z,103240.55
2018-09-25T07:16:43.086Z,103237.41
2018-09-25T07:19:16.637Z,103234.42
2018-09-25T07:21:50.142Z,103240.45
2018-09-25T07:24:23.667Z,103249.98
2018-09-25T07:26:57.189Z,103246.81
2018-09-25T07:29:30.575Z,103252.34
2018-09-25T07:32:04.263Z,103249.41
2018-09-25T07:34:37.805Z,103256.38
2018-09-25T07:37:11.327Z,103265.42
2018-09-25T07:39:44.801Z,103262.10
2018-09-25T07:42:18.398Z,103267.45
2018-09-25T07:44:51.832Z,103279.63
2018-09-25T07:47:25.299Z,103275.97
2018-09-25T07:49:58.782Z,103274.80
2018-09-25T07:52:32.246Z,103270.19
2018-09-25T07:55:05.607Z,103269.45
2018-09-25T07:57:39.181Z,103263.67
2018-09-25T08:00:12.939Z,103276.36
2018-09-25T08:02:46.311Z,103263.20
2018-09-25T08:05:19.903Z,103264.59
2018-09-25T08:07:53.277Z,103269.73
2018-09-25T08:10:26.878Z,103272.97
2018-09-25T08:13:00.376Z,103273.48
2018-09-25T08:15:33.869Z,103266.38
2018-09-25T08:18:07.335Z,103277.61
2018-09-25T08:20:40.873Z,103268.92
2018-09-25T08:23:14.386Z,103261.09
2018-09-25T08:25:47.878Z,103268.17
2018-09-25T08:28:21.371Z,103271.09
2018-09-25T08:30:55.002Z,103273.42
2018-09-25T08:33:29.571Z,103277.58
2018-09-25T08:36:03.037Z,103275.19
2018-09-25T08:38:36.709Z,103282.96
2018-09-25T08:41:10.107Z,103287.91
2018-09-25T08:43:43.647Z,103297.73
2018-09-25T08:46:17.132Z,103296.39
2018-09-25T08:48:50.705Z,103296.05
2018-09-25T08:51:24.190Z,103298.66
2018-09-25T08:53:57.758Z,103298.50
2018-09-25T08:56:31.182Z,103301.64
2018-09-25T08:59:04.501Z,103301.64
2018-09-25T09:01:38.122Z,103295.16
2018-09-25T09:04:11.941Z,103297.00
2018-09-25T09:06:45.432Z,103303.70
2018-09-25T09:09:18.974Z,103301.53
2018-09-25T09:11:52.497Z,103302.26
2018-09-25T09:14:26.111Z,103299.64
2018-09-25T09:16:59.673Z,103301.59
2018-09-25T09:19:33.352Z,103299.17
2018-09-25T09:22:06.906Z,103296.28
2018-09-25T09:24:40.410Z,103288.61
2018-09-25T09:27:14.009Z,103292.73
2018-09-25T09:29:48.044Z,103295.11
2018-09-25T09:32:21.660Z,103287.29
2018-09-25T09:34:56.368Z,103284.06
2018-09-25T09:37:29.992Z,103274.17
2018-09-25T09:40:03.605Z,103285.22
2018-09-25T09:42:37.093Z,103282.48
2018-09-25T09:45:10.633Z,103288.89
2018-09-25T09:47:44.027Z,103284.48
2018-09-25T09:50:17.629Z,103282.89
2018-09-25T09:52:50.925Z,103279.94
2018-09-25T09:55:24.483Z,103282.48
2018-09-25T09:57:58.059Z,103274.35
2018-09-25T10:00:31.686Z,103278.56
2018-09-25T10:03:05.289Z,103274.77
2018-09-25T10:05:38.878Z,103271.91
2018-09-25T10:08:12.452Z,103267.97
2018-09-25T10:10:45.924Z,103267.94
2018-09-25T10:13:19.517Z,103263.05
2018-09-25T10:15:52.993Z,103263.70
2018-09-25T10:18:26.579Z,103260.58
2018-09-25T10:21:00.146Z,103263.69
2018-09-25T10:23:33.631Z,103260.73
2018-09-25T10:26:07.103Z,103257.64
2018-09-25T10:28:40.666Z,103256.83
2018-09-25T10:31:14.194Z,103253.59
2018-09-25T10:33:47.806Z,103255.59
2018-09-25T10:36:21.502Z,103243.58
2018-09-25T10:38:54.957Z,103249.27
2018-09-25T10:41:28.534Z,103252.83
2018-09-25T10:44:02.911Z,103251.45
2018-09-25T10:46:36.608Z,103259.08
2018-09-25T10:49:09.965Z,103253.52
2018-09-25T10:51:43.525Z,103254.00
2018-09-25T10:54:16.874Z,103248.13
2018-09-25T10:56:50.229Z,103247.22
2018-09-25T10:59:23.745Z,103257.37
2018-09-25T11:01:57.427Z,103251.06
2018-09-25T11:04:31.138Z,103250.07
2018-09-25T11:07:04.657Z,103252.27
2018-09-25T11:09:38.162Z,103251.50
2018-09-25T11:12:11.342Z,103249.34
2018-09-25T11:14:44.810Z,103247.70
2018-09-25T11:17:18.482Z,103249.22
2018-09-25T11:19:51.867Z,103242.91
2018-09-25T11:22:25.362Z,103240.37
2018-09-25T11:24:58.970Z,103245.58
2018-09-25T11:27:32.611Z,103244.05
2018-09-25T11:30:06.243Z,103244.47
2018-09-25T11:32:39.706Z,103241.00
2018-09-25T11:35:13.319Z,103241.80
2018-09-25T11:37:46.883Z,103242.80
2018-09-25T11:40:20.395Z,103232.05
2018-09-25T11:42:53.895Z,103242.51
2018-09-25T11:45:27.362Z,103243.34
2018-09-25T11:48:00.746Z,103244.19
2018-09-25T11:50:34.466Z,103241.15
2018-09-25T11:53:08.054Z,103236.73
2018-09-25T11:55:41.605Z,103234.90
2018-09-25T11:58:15.075Z,103229.81
2018-09-25T12:00:48.681Z,103234.09
2018-09-25T12:03:22.337Z,103219.61
2018-09-25T12:05:55.934Z,103222.79
2018-09-25T12:08:29.397Z,103215.82
2018-09-25T12:11:02.957Z,103223.16
2018-09-25T12:13:36.517Z,103217.05
2018-09-25T12:16:10.010Z,103200.97
2018-09-25T12:18:43.520Z,103212.02
2018-09-25T12:21:16.931Z,103208.22
2018-09-25T12:23:50.485Z,103208.23
2018-09-25T12:26:23.929Z,103215.87
2018-09-25T12:28:57.398Z,103223.59
2018-09-25T12:31:30.975Z,103222.28
2018-09-25T12:34:04.654Z,103215.80
2018-09-25T12:36:38.373Z,103208.41
2018-09-25T12:39:13.427Z,103198.90
2018-09-25T12:41:47.158Z,103200.42
2018-09-25T12:44:20.774Z,103201.63
2018-09-25T12:46:54.130Z,103199.11
2018-09-25T12:49:27.821Z,103197.75
2018-09-25T12:52:01.267Z,103194.28
2018-09-25T12:54:34.931Z,103182.37
2018-09-25T12:57:08.602Z,103183.86
2018-09-25T12:59:42.081Z,103187.53
2018-09-25T13:02:15.697Z,103188.83
2018-09-25T13:04:50.389Z,103175.89
2018-09-25T13:07:23.888Z,103179.97
2018-09-25T13:09:57.430Z,103177.94
2018-09-25T13:12:30.974Z,103167.95
2018-09-25T13:15:04.662Z,103172.31
2018-09-25T13:17:38.106Z,103159.55
2018-09-25T13:20:11.661Z,103157.50
2018-09-25T13:22:45.392Z,103155.91
2018-09-25T13:25:18.856Z,103154.25
2018-09-25T13:27:52.216Z,103147.61
2018-09-25T13:30:25.754Z,103140.72
2018-09-25T13:32:59.343Z,103132.68
2018-09-25T13:35:32.953Z,103132.61
2018-09-25T13:38:06.326Z,103123.88
2018-09-25T13:40:39.821Z,103106.45
2018-09-25T13:43:13.358Z,103104.99
2018-09-25T13:45:46.753Z,103097.97
2018-09-25T13:48:20.225Z,103103.95
2018-09-25T13:50:53.705Z,103100.65
2018-09-25T13:53:27.242Z,103098.48
2018-09-25T13:56:00.827Z,103096.77
2018-09-25T13:58:34.322Z,103099.45
2018-09-25T14:01:07.784Z,103090.73
2018-09-25T14:03:41.284Z,103080.05
2018-09-25T14:06:14.880Z,103082.55
2018-09-25T14:08:48.302Z,103089.11
2018-09-25T14:11:21.790Z,103080.89
2018-09-25T14:13:55.248Z,103079.66
2018-09-25T14:16:28.731Z,103069.56
2018-09-25T14:19:02.274Z,103063.87
2018-09-25T14:21:35.829Z,103065.56
2018-09-25T14:24:09.392Z,103056.94
2018-09-25T14:26:42.844Z,103040.77
2018-09-25T14:29:16.509Z,103047.26
2018-09-25T14:31:50.136Z,103042.84
2018-09-25T14:34:23.778Z,103049.06
2018-09-25T14:36:57.597Z,103056.28
2018-09-25T14:39:31.034Z,103048.83
2018-09-25T14:42:04.554Z,103045.58
2018-09-25T14:44:38.005Z,103043.92
2018-09-25T14:47:11.819Z,103051.84
2018-09-25T14:49:45.181Z,103050.63
2018-09-25T14:52:18.562Z,103040.07
2018-09-25T14:54:52.119Z,103038.34
2018-09-25T14:57:25.607Z,103038.96
2018-09-25T14:59:59.133Z,103036.51
2018-09-25T15:02:32.583Z,103043.91
2018-09-25T15:05:05.954Z,103037.42
2018-09-25T15:07:39.350Z,103037.98
2018-09-25T15:10:12.907Z,103037.39
2018-09-25T15:12:46.318Z,103035.33
2018-09-25T15:15:19.735Z,103029.31
2018-09-25T15:17:53.236Z,103025.59
2018-09-25T15:20:26.757Z,103021.85
2018-09-25T15:23:00.378Z,103016.28
2018-09-25T15:25:33.783Z,103010.69
2018-09-25T15:28:07.193Z,103005.87
2018-09-25T15:30:40.754Z,103010.28
2018-09-25T15:33:14.276Z,103004.98
2018-09-25T15:35:47.940Z,103005.38
2018-09-25T15:38:21.465Z,103010.08
2018-09-25T15:40:55.124Z,103008.80
2018-09-25T15:43:28.471Z,103007.48
2018-09-25T15:46:02.043Z,103014.44
2018-09-25T15:48:35.539Z,103013.13
2018-09-25T15:51:09.286Z,103011.22
2018-09-25T15:53:42.910Z,103012.56
2018-09-25T15:56:16.511Z,103012.85
2018-09-25T15:58:50.185Z,103004.95
2018-09-25T16:01:23.639Z,103011.55
2018-09-25T16:03:57.172Z,103006.01
2018-09-25T16:06:30.661Z,103009.48
2018-09-25T16:09:04.242Z,103010.94
2018-09-25T16:11:37.891Z,103005.85
2018-09-25T16:14:11.587Z,103010.16
2018-09-25T16:16:44.986Z,103011.44
2018-09-25T16:19:18.570Z,103008.05
2018-09-25T16:21:52.290Z,103013.37
2018-09-25T16:24:25.867Z,103009.47
2018-09-25T16:26:59.308Z,103004.58
2018-09-25T16:29:32.829Z,103003.81
2018-09-25T16:32:06.305Z,102999.73
2018-09-25T16:34:39.914Z,103003.19
2018-09-25T16:37:13.393Z,103005.73
2018-09-25T16:39:46.890Z,103013.09
2018-09-25T16:42:20.377Z,103009.50
2018-09-25T16:44:53.849Z,103002.11
2018-09-25T16:47:27.403Z,103007.81
2018-09-25T16:50:00.859Z,103011.57
2018-09-25T16:52:34.577Z,103012.58
2018-09-25T16:55:08.139Z,103006.58
2018-09-25T16:57:41.755Z,103009.82
2018-09-25T17:00:15.298Z,103013.98
2018-09-25T17:02:48.833Z,103022.26
2018-09-25T17:05:22.158Z,103026.41
2018-09-25T17:07:55.726Z,103034.41
2018-09-25T17:10:29.330Z,103033.45
2018-09-25T17:13:02.838Z,103031.00
2018-09-25T17:15:36.456Z,103025.30
2018-09-25T17:18:10.101Z,103027.49
2018-09-25T17:20:43.539Z,103033.19
2018-09-25T17:23:17.125Z,103040.05
2018-09-25T17:25:50.769Z,103031.25
2018-09-25T17:28:24.423Z,103036.99
2018-09-25T17:30:58.055Z,103039.14
2018-09-25T17:33:31.819Z,103040.16
2018-09-25T17:36:05.323Z,103043.78
2018-09-25T17:38:38.925Z,103043.95
2018-09-25T17:41:12.582Z,103049.16
2018-09-25T17:43:45.988Z,103044.89
2018-09-25T17:46:19.644Z,103043.77
2018-09-25T17:48:53.158Z,103050.51
2018-09-25T17:51:26.558Z,103046.85
2018-09-25T17:54:00.078Z,103056.64
2018-09-25T17:56:33.645Z,103058.00
2018-09-25T17:59:07.078Z,103057.26
2018-09-25T18:01:40.643Z,103060.34
2018-09-25T18:04:14.143Z,103065.70
2018-09-25T18:06:47.590Z,103076.67
2018-09-25T18:09:21.169Z,103074.50
2018-09-25T18:11:54.708Z,103078.51
2018-09-25T18:14:28.242Z,103085.69
2018-09-25T18:17:01.690Z,103079.29
2018-09-25T18:19:35.079Z,103085.03
2018-09-25T18:22:08.777Z,103088.55
2018-09-25T18:24:42.134Z,103083.25
2018-09-25T18:27:15.861Z,103088.39
2018-09-25T18:29:49.215Z,103083.02
2018-09-25T18:32:22.713Z,103090.73
2018-09-25T18:34:56.243Z,103094.70
2018-09-25T18:37:29.829Z,103083.36
2018-09-25T18:40:03.513Z,103091.70
2018-09-25T18:42:36.975Z,103096.70
2018-09-25T18:45:10.656Z,103093.88
2018-09-25T18:47:44.218Z,103093.31
2018-09-25T18:50:17.779Z,103104.78
2018-09-25T18:52:51.365Z,103108.72
2018-09-25T18:55:24.996Z,103113.97
2018-09-25T18:57:58.419Z,103111.42
2018-09-25T19:00:31.812Z,103112.64
2018-09-25T19:03:05.455Z,103110.84
2018-09-25T19:05:39.061Z,103102.75
2018-09-25T19:08:12.538Z,103104.75
2018-09-25T19:10:46.159Z,103100.21
2018-09-25T19:13:19.558Z,103105.35
2018-09-25T19:15:53.090Z,103104.05
2018-09-25T19:18:26.610Z,103100.05
2018-09-25T19:21:00.082Z,103105.07
2018-09-25T19:23:33.551Z,103109.90
2018-09-25T19:26:07.130Z,103108.69
2018-09-25T19:28:40.498Z,103109.73
2018-09-25T19:31:14.106Z,103107.55
2018-09-25T19:33:47.740Z,103104.16
2018-09-25T19:36:21.274Z,103100.62
2018-09-25T19:38:54.801Z,103097.63
2018-09-25T19:41:28.296Z,103102.29
2018-09-25T19:44:01.790Z,103098.93
2018-09-25T19:46:35.342Z,103097.84
2018-09-25T19:49:08.849Z,103105.84
2018-09-25T19:51:42.527Z,103113.38
2018-09-25T19:54:16.046Z,103115.09
2018-09-25T19:56:49.737Z,103104.96
2018-09-25T19:59:23.334Z,103098.63
2018-09-25T20:01:56.973Z,103103.38
2018-09-25T20:04:30.502Z,103111.79
2018-09-25T20:07:04.170Z,103108.08
2018-09-25T20:09:37.701Z,103098.97
2018-09-25T20:12:11.214Z,103098.84
2018-09-25T20:14:48.394Z,103108.09
2018-09-25T20:17:21.921Z,103109.56
2018-09-25T20:19:55.427Z,103108.09
2018-09-25T20:22:35.079Z,103105.34
2018-09-25T20:25:08.619Z,103100.34
2018-09-25T20:27:42.153Z,103103.95
2018-09-25T20:30:15.787Z,103104.69
2018-09-25T20:32:49.360Z,103104.44
2018-09-25T20:35:32.022Z,103094.87
2018-09-25T20:38:05.744Z,103088.17
2018-09-25T20:40:39.419Z,103090.06
2018-09-25T20:43:13.073Z,103073.47
2018-09-25T20:45:46.588Z,103072.38
2018-09-25T20:48:20.167Z,103074.05
2018-09-25T20:50:53.813Z,103074.97
2018-09-25T20:53:27.213Z,103071.45
2018-09-25T20:56:00.677Z,103073.23
2018-09-25T20:58:34.283Z,103076.23
2018-09-25T21:01:07.883Z,103075.34
2018-09-25T21:03:41.507Z,103077.56
2018-09-25T21:06:15.125Z,103083.43
2018-09-25T21:08:48.507Z,103084.63
2018-09-25T21:11:22.046Z,103076.42
2018-09-25T21:13:55.515Z,103070.63
2018-09-25T21:16:29.175Z,103065.58
2018-09-25T21:19:02.734Z,103062.68
2018-09-25T21:21:36.263Z,103064.06
2018-09-25T21:24:09.997Z,103054.64
2018-09-25T21:26:43.369Z,103056.34
2018-09-25T21:29:16.941Z,103053.27
2018-09-25T21:31:50.523Z,103047.36
2018-09-25T21:36:56.652Z,103046.09
2018-09-25T21:39:30.186Z,103045.72
2018-09-25T21:42:03.894Z,103034.13
2018-09-25T21:44:37.435Z,103022.61
2018-09-25T21:47:11.002Z,103020.82
2018-09-25T21:49:44.338Z,103019.53
2018-09-25T21:52:17.864Z,103020.25
2018-09-25T21:54:51.386Z,103026.44
2018-09-25T21:57:25.197Z,103028.38
2018-09-25T21:59:58.383Z,103044.20
2018-09-25T22:02:31.837Z,103045.19
2018-09-25T22:05:05.278Z,103046.55
2018-09-25T22:07:38.769Z,103051.98
2018-09-25T22:10:12.174Z,103048.48
2018-09-25T22:12:45.774Z,103048.89
2018-09-25T22:15:19.408Z,103055.38
2018-09-25T22:17:52.927Z,103060.32
2018-09-25T22:20:26.438Z,103060.17
2018-09-25T22:22:59.929Z,103054.94
2018-09-25T22:25:33.247Z,103045.78
2018-09-25T22:28:06.629Z,103025.31
2018-09-25T22:30:40.090Z,103016.72
2018-09-25T22:33:13.566Z,103015.43
2018-09-25T22:35:47.172Z,103024.45
2018-09-25T22:38:20.817Z,103022.20
2018-09-25T22:40:54.231Z,103020.25
2018-09-25T22:43:27.727Z,103015.14
2018-09-25T22:46:01.179Z,103005.75
2018-09-25T22:48:34.826Z,103011.30
2018-09-25T22:51:08.410Z,102996.58
2018-09-25T22:53:41.886Z,102998.66
2018-09-25T22:56:15.218Z,102997.75
2018-09-25T22:58:48.809Z,102993.50
2018-09-25T23:01:22.157Z,102993.08
2018-09-25T23:03:55.676Z,102988.42
2018-09-25T23:06:29.155Z,102989.47
2018-09-25T23:09:02.654Z,102978.77
2018-09-25T23:11:36.130Z,102978.77
2018-09-25T23:14:09.682Z,102970.58
2018-09-25T23:16:43.274Z,102966.94
2018-09-25T23:19:16.718Z,102967.12
2018-09-25T23:21:50.211Z,102970.36
2018-09-25T23:24:23.684Z,102964.54
2018-09-25T23:26:57.081Z,102963.25
2018-09-25T23:29:30.872Z,102967.41
2018-09-25T23:32:04.453Z,102961.59
2018-09-25T23:34:38.145Z,102963.91
2018-09-25T23:37:11.682Z,102956.38
2018-09-25T23:40:00.013Z,102956.26
2018-09-25T23:42:35.656Z,102946.47
2018-09-25T23:45:09.369Z,102939.38
2018-09-25T23:48:41.393Z,102934.75
2018-09-25T23:51:14.978Z,102932.09
2018-09-25T23:54:46.072Z,102926.44
2018-09-25T23:57:19.154Z,102932.55
2018-09-25T23:59:53.626Z,102933.64
